createdAt,value
2018-08-18T00:00:17.444Z,14.40
2018-08-18T00:02:46.173Z,14.50
2018-08-18T00:05:15.641Z,15.47
2018-08-18T00:07:44.862Z,14.03
2018-08-18T00:10:15.890Z,15.63
2018-08-18T00:12:44.829Z,17.03
2018-08-18T00:15:13.643Z,16.67
2018-08-18T00:17:42.421Z,16.57
2018-08-18T00:20:14.888Z,15.67
2018-08-18T00:22:43.440Z,16.63
2018-08-18T00:25:12.375Z,15.93
2018-08-18T00:27:41.043Z,16.47
2018-08-18T00:30:15.992Z,15.37
2018-08-18T00:32:45.080Z,17.50
2018-08-18T00:35:13.796Z,17.73
2018-08-18T00:37:42.471Z,18.80
2018-08-18T00:40:11.977Z,18.17
2018-08-18T00:42:41.400Z,18.93
2018-08-18T00:45:11.803Z,19.37
2018-08-18T00:47:41.013Z,18.77
2018-08-18T00:50:10.620Z,18.53
2018-08-18T00:52:39.608Z,16.93
2018-08-18T00:55:08.514Z,18.40
2018-08-18T00:57:37.389Z,17.93
2018-08-18T01:00:06.807Z,18.00
2018-08-18T01:02:35.733Z,17.37
2018-08-18T01:05:05.005Z,17.53
2018-08-18T01:07:33.720Z,17.67
2018-08-18T01:10:02.967Z,15.90
2018-08-18T01:12:31.946Z,15.57
2018-08-18T01:15:00.413Z,19.17
2018-08-18T01:17:29.286Z,16.43
2018-08-18T01:19:59.093Z,19.70
2018-08-18T01:22:27.756Z,19.63
2018-08-18T01:24:56.466Z,19.17
2018-08-18T01:27:25.096Z,18.50
2018-08-18T01:30:01.172Z,18.93
2018-08-18T01:32:32.997Z,19.33
2018-08-18T01:35:01.683Z,18.40
2018-08-18T01:37:32.528Z,18.43
2018-08-18T01:40:01.503Z,18.63
2018-08-18T01:42:32.594Z,17.67
2018-08-18T01:45:01.234Z,18.50
2018-08-18T01:47:30.778Z,18.83
2018-08-18T01:50:04.381Z,18.03
2018-08-18T01:52:33.829Z,18.17
2018-08-18T01:55:02.533Z,18.03
2018-08-18T01:57:31.491Z,18.17
2018-08-18T02:00:05.252Z,17.83
2018-08-18T02:02:34.261Z,17.93
2018-08-18T02:05:12.533Z,17.83
2018-08-18T02:07:41.316Z,18.35
2018-08-18T02:10:11.083Z,16.30
2018-08-18T02:12:40.869Z,16.60
2018-08-18T02:15:09.558Z,17.90
2018-08-18T02:17:38.890Z,17.47
2018-08-18T02:20:09.220Z,17.33
2018-08-18T02:22:37.885Z,16.90
2018-08-18T02:25:07.061Z,17.47
2018-08-18T02:27:35.969Z,17.43
2018-08-18T02:30:23.733Z,17.48
2018-08-18T02:32:52.397Z,18.33
2018-08-18T02:35:23.587Z,17.90
2018-08-18T02:37:52.352Z,18.00
2018-08-18T02:40:21.080Z,18.47
2018-08-18T02:42:49.820Z,19.67
2018-08-18T02:45:18.586Z,20.63
2018-08-18T02:47:47.413Z,19.43
2018-08-18T02:50:16.028Z,21.23
2018-08-18T02:52:45.438Z,19.97
2018-08-18T02:55:14.093Z,20.60
2018-08-18T02:57:44.760Z,20.57
2018-08-18T03:00:23.683Z,21.67
2018-08-18T03:02:52.494Z,22.63
2018-08-18T03:05:21.404Z,23.03
2018-08-18T03:07:51.627Z,24.50
2018-08-18T03:10:27.129Z,25.17
2018-08-18T03:12:59.325Z,23.93
2018-08-18T03:16:05.665Z,25.50
2018-08-18T03:18:42.261Z,24.23
2018-08-18T03:21:11.141Z,23.90
2018-08-18T03:23:50.013Z,24.27
2018-08-18T03:26:21.343Z,23.83
2018-08-18T03:28:51.100Z,23.73
2018-08-18T03:31:20.116Z,22.33
2018-08-18T03:33:51.329Z,20.37
2018-08-18T03:36:35.533Z,18.17
2018-08-18T03:39:05.946Z,17.03
2018-08-18T03:41:34.609Z,16.47
2018-08-18T03:44:03.564Z,14.57
2018-08-18T03:46:32.258Z,14.13
2018-08-18T03:49:00.932Z,13.40
2018-08-18T03:51:34.736Z,13.90
2018-08-18T03:54:03.580Z,13.37
2018-08-18T03:56:32.257Z,13.20
2018-08-18T03:59:01.706Z,12.63
2018-08-18T04:01:40.508Z,12.82
2018-08-18T04:04:10.411Z,12.90
2018-08-18T04:06:41.092Z,13.20
2018-08-18T04:09:13.363Z,13.50
2018-08-18T04:11:41.980Z,12.50
2018-08-18T04:14:10.838Z,12.23
2018-08-18T04:16:45.301Z,12.87
2018-08-18T04:19:14.701Z,11.80
2018-08-18T04:21:43.417Z,12.07
2018-08-18T04:24:11.977Z,12.60
2018-08-18T04:26:40.865Z,12.40
2018-08-18T04:29:09.585Z,11.77
2018-08-18T04:31:38.760Z,12.07
2018-08-18T04:34:08.625Z,11.57
2018-08-18T04:36:37.287Z,11.67
2018-08-18T04:39:08.408Z,11.50
2018-08-18T04:41:37.287Z,10.97
2018-08-18T04:44:06.435Z,11.13
2018-08-18T04:46:35.332Z,12.23
2018-08-18T04:49:04.529Z,10.97
2018-08-18T04:51:33.259Z,10.60
2018-08-18T04:54:02.115Z,10.43
2018-08-18T04:56:31.055Z,10.07
2018-08-18T04:58:59.713Z,9.63
2018-08-18T05:01:29.538Z,10.33
2018-08-18T05:04:09.008Z,11.00
2018-08-18T05:06:40.789Z,11.63
2018-08-18T05:09:12.189Z,12.30
2018-08-18T05:11:40.959Z,11.67
2018-08-18T05:14:09.682Z,10.90
2018-08-18T05:16:38.325Z,11.97
2018-08-18T05:19:07.075Z,11.80
2018-08-18T05:21:35.784Z,12.27
2018-08-18T05:24:20.383Z,12.90
2018-08-18T05:26:49.540Z,12.37
2018-08-18T05:29:18.278Z,12.73
2018-08-18T05:31:48.102Z,12.67
2018-08-18T05:34:17.196Z,12.70
2018-08-18T05:36:46.281Z,12.27
2018-08-18T05:39:15.206Z,12.23
2018-08-18T05:41:43.888Z,13.77
2018-08-18T05:44:12.707Z,12.97
2018-08-18T05:46:41.428Z,13.57
2018-08-18T05:49:14.361Z,12.80
2018-08-18T05:51:45.225Z,13.33
2018-08-18T05:54:15.317Z,13.00
2018-08-18T05:56:45.353Z,12.83
2018-08-18T05:59:13.948Z,13.27
2018-08-18T06:01:43.068Z,13.43
2018-08-18T06:04:16.037Z,13.00
2018-08-18T06:06:45.607Z,13.30
2018-08-18T06:09:15.448Z,13.73
2018-08-18T06:11:44.379Z,13.80
2018-08-18T06:14:13.833Z,13.17
2018-08-18T06:16:43.853Z,13.53
2018-08-18T06:19:12.491Z,13.50
2018-08-18T06:21:41.347Z,13.00
2018-08-18T06:24:10.084Z,13.73
2018-08-18T06:26:39.060Z,12.80
2018-08-18T06:29:07.742Z,13.47
2018-08-18T06:31:50.318Z,12.67
2018-08-18T06:34:19.008Z,12.80
2018-08-18T06:36:47.712Z,12.57
2018-08-18T06:39:16.393Z,13.70
2018-08-18T06:41:45.201Z,12.47
2018-08-18T06:44:14.554Z,11.93
2018-08-18T06:46:43.345Z,12.30
2018-08-18T06:49:12.119Z,11.53
2018-08-18T06:51:40.814Z,12.03
2018-08-18T06:54:09.705Z,10.83
2018-08-18T06:56:38.272Z,11.83
2018-08-18T06:59:09.610Z,11.70
2018-08-18T07:01:38.699Z,11.73
2018-08-18T07:04:13.461Z,10.83
2018-08-18T07:06:42.637Z,12.00
2018-08-18T07:09:11.428Z,10.90
2018-08-18T07:11:43.374Z,11.03
2018-08-18T07:14:12.210Z,10.93
2018-08-18T07:16:41.551Z,10.57
2018-08-18T07:19:10.300Z,11.27
2018-08-18T07:21:38.972Z,10.70
2018-08-18T07:24:07.585Z,10.80
2018-08-18T07:26:36.290Z,11.50
2018-08-18T07:29:05.183Z,11.20
2018-08-18T07:31:34.645Z,10.97
2018-08-18T07:34:09.820Z,10.40
2018-08-18T07:36:38.471Z,12.60
2018-08-18T07:39:08.330Z,12.03
2018-08-18T07:41:36.981Z,11.23
2018-08-18T07:44:05.665Z,10.07
2018-08-18T07:46:34.570Z,13.30
2018-08-18T07:49:04.381Z,9.67
2018-08-18T07:51:33.086Z,10.90
2018-08-18T07:54:01.689Z,11.87
2018-08-18T07:56:30.466Z,10.03
2018-08-18T07:58:59.460Z,10.33
2018-08-18T08:01:28.172Z,10.40
2018-08-18T08:03:57.927Z,12.23
2018-08-18T08:06:26.630Z,10.77
2018-08-18T08:08:55.388Z,11.03
2018-08-18T08:11:25.526Z,11.73
2018-08-18T08:13:54.293Z,10.30
2018-08-18T08:16:23.219Z,11.00
2018-08-18T08:18:52.603Z,10.07
2018-08-18T08:21:21.421Z,10.03
2018-08-18T08:23:51.200Z,11.27
2018-08-18T08:26:19.814Z,10.47
2018-08-18T08:28:48.726Z,10.43
2018-08-18T08:31:18.455Z,9.87
2018-08-18T08:33:47.145Z,9.50
2018-08-18T08:36:17.310Z,9.43
2018-08-18T08:38:54.199Z,10.70
2018-08-18T08:41:24.852Z,9.13
2018-08-18T08:43:53.781Z,8.83
2018-08-18T08:46:22.677Z,9.63
2018-08-18T08:48:56.769Z,9.77
2018-08-18T08:51:26.157Z,9.37
2018-08-18T08:53:56.139Z,8.50
2018-08-18T08:56:29.739Z,9.00
2018-08-18T08:58:58.647Z,10.10
2018-08-18T09:01:27.389Z,10.80
2018-08-18T09:03:56.022Z,10.17
2018-08-18T09:06:24.808Z,9.90
2018-08-18T09:08:58.425Z,10.40
2018-08-18T09:11:28.492Z,10.23
2018-08-18T09:14:04.898Z,9.90
2018-08-18T09:16:34.819Z,9.93
2018-08-18T09:19:03.534Z,10.27
2018-08-18T09:21:40.314Z,8.87
2018-08-18T09:24:09.948Z,10.30
2018-08-18T09:26:43.786Z,9.20
2018-08-18T09:29:14.243Z,8.90
2018-08-18T09:31:43.818Z,9.57
2018-08-18T09:34:12.641Z,8.50
2018-08-18T09:36:41.958Z,9.47
2018-08-18T09:39:17.290Z,8.70
2018-08-18T09:41:46.365Z,8.97
2018-08-18T09:44:20.192Z,9.10
2018-08-18T09:46:48.788Z,8.83
2018-08-18T09:49:17.409Z,8.97
2018-08-18T09:51:46.238Z,8.87
2018-08-18T09:54:15.132Z,9.20
2018-08-18T09:56:43.858Z,8.67
2018-08-18T09:59:12.950Z,8.90
2018-08-18T10:01:41.847Z,9.13
2018-08-18T10:04:10.557Z,8.60
2018-08-18T10:06:39.486Z,8.97
2018-08-18T10:09:09.459Z,8.77
2018-08-18T10:11:38.745Z,9.20
2018-08-18T10:14:07.966Z,9.40
2018-08-18T10:16:37.025Z,9.40
2018-08-18T10:19:05.980Z,9.20
2018-08-18T10:21:34.797Z,8.87
2018-08-18T10:24:03.853Z,7.90
2018-08-18T10:26:32.524Z,8.93
2018-08-18T10:29:13.485Z,8.93
2018-08-18T10:31:52.415Z,8.70
2018-08-18T10:34:23.277Z,9.30
2018-08-18T10:36:56.310Z,8.47
2018-08-18T10:39:25.078Z,8.83
2018-08-18T10:42:20.245Z,8.30
2018-08-18T10:44:58.250Z,8.77
2018-08-18T10:47:26.910Z,8.53
2018-08-18T10:50:06.890Z,8.37
2018-08-18T10:52:46.724Z,8.43
2018-08-18T10:55:16.729Z,8.50
2018-08-18T10:57:59.432Z,8.43
2018-08-18T11:00:29.673Z,8.95
2018-08-18T11:03:00.901Z,8.90
2018-08-18T11:05:30.331Z,8.77
2018-08-18T11:08:04.439Z,9.00
2018-08-18T11:10:34.868Z,7.87
2018-08-18T11:13:03.676Z,7.90
2018-08-18T11:15:32.341Z,8.03
2018-08-18T11:18:01.353Z,8.77
2018-08-18T11:20:31.456Z,8.40
2018-08-18T11:23:06.899Z,8.03
2018-08-18T11:25:38.721Z,8.80
2018-08-18T11:28:08.576Z,8.53
2018-08-18T11:30:38.419Z,8.00
2018-08-18T11:33:07.473Z,9.43
2018-08-18T11:35:36.497Z,8.30
2018-08-18T11:38:08.711Z,13.27
2018-08-18T11:40:37.453Z,10.80
2018-08-18T11:43:09.097Z,9.13
2018-08-18T11:45:39.796Z,8.50
2018-08-18T11:48:20.462Z,8.30
2018-08-18T11:50:50.173Z,9.13
2018-08-18T11:53:18.953Z,8.67
2018-08-18T11:55:47.807Z,8.00
2018-08-18T11:58:17.848Z,8.63
2018-08-18T12:00:50.080Z,8.57
2018-08-18T12:03:21.761Z,8.50
2018-08-18T12:05:54.344Z,15.67
2018-08-18T12:08:25.457Z,9.50
2018-08-18T12:10:56.745Z,8.83
2018-08-18T12:13:31.200Z,9.60
2018-08-18T12:16:12.380Z,8.90
2018-08-18T12:18:42.410Z,7.87
2018-08-18T12:21:11.783Z,7.00
2018-08-18T12:23:41.957Z,6.47
2018-08-18T12:26:13.734Z,7.37
2018-08-18T12:28:45.241Z,7.33
2018-08-18T12:31:16.712Z,7.43
2018-08-18T12:33:45.535Z,6.77
2018-08-18T12:36:14.357Z,8.13
2018-08-18T12:38:44.537Z,7.20
2018-08-18T12:41:13.687Z,7.47
2018-08-18T12:43:45.252Z,8.73
2018-08-18T12:46:16.260Z,7.87
2018-08-18T12:48:46.231Z,7.77
2018-08-18T12:51:16.098Z,9.63
2018-08-18T12:53:53.189Z,8.70
2018-08-18T12:56:27.847Z,7.20
2018-08-18T12:58:56.732Z,7.13
2018-08-18T13:01:40.844Z,7.83
2018-08-18T13:04:11.778Z,7.57
2018-08-18T13:06:55.032Z,7.30
2018-08-18T13:09:26.694Z,6.90
2018-08-18T13:11:56.792Z,7.20
2018-08-18T13:14:27.178Z,6.47
2018-08-18T13:16:55.959Z,8.20
2018-08-18T13:19:27.576Z,7.20
2018-08-18T13:21:56.287Z,7.28
2018-08-18T13:24:25.070Z,6.97
2018-08-18T13:26:53.852Z,6.67
2018-08-18T13:29:22.533Z,7.17
2018-08-18T13:31:51.142Z,7.42
2018-08-18T13:34:19.874Z,6.97
2018-08-18T13:36:48.682Z,6.40
2018-08-18T13:39:18.865Z,6.42
2018-08-18T13:41:48.680Z,6.80
2018-08-18T13:44:26.406Z,7.10
2018-08-18T13:46:55.164Z,6.72
2018-08-18T13:49:25.345Z,7.12
2018-08-18T13:51:54.115Z,7.72
2018-08-18T13:54:22.857Z,6.17
2018-08-18T13:56:51.574Z,6.50
2018-08-18T13:59:45.304Z,6.75
2018-08-18T14:02:13.969Z,6.40
2018-08-18T14:04:43.496Z,5.70
2018-08-18T14:07:12.917Z,6.33
2018-08-18T14:09:44.213Z,5.90
2018-08-18T14:12:17.253Z,5.97
2018-08-18T14:14:46.766Z,5.42
2018-08-18T14:17:16.465Z,5.60
2018-08-18T14:19:45.150Z,6.33
2018-08-18T14:22:14.610Z,5.83
2018-08-18T14:24:43.345Z,5.28
2018-08-18T14:27:15.997Z,6.05
2018-08-18T14:29:44.743Z,5.87
2018-08-18T14:32:18.270Z,5.65
2018-08-18T14:34:56.839Z,4.90
2018-08-18T14:37:25.508Z,5.67
2018-08-18T14:39:54.215Z,4.83
2018-08-18T14:42:22.908Z,5.35
2018-08-18T14:44:52.046Z,5.12
2018-08-18T14:47:20.629Z,4.95
2018-08-18T14:49:49.848Z,5.30
2018-08-18T14:52:18.514Z,4.97
2018-08-18T14:54:47.216Z,4.53
2018-08-18T14:57:15.973Z,4.85
2018-08-18T14:59:44.765Z,5.33
2018-08-18T15:02:14.082Z,4.62
2018-08-18T15:04:42.681Z,4.70
2018-08-18T15:07:11.357Z,5.35
2018-08-18T15:09:44.423Z,4.72
2018-08-18T15:12:13.246Z,5.67
2018-08-18T15:14:41.976Z,5.00
2018-08-18T15:17:10.836Z,4.95
2018-08-18T15:19:39.529Z,5.30
2018-08-18T15:22:09.884Z,5.60
2018-08-18T15:24:38.879Z,4.85
2018-08-18T15:27:07.643Z,4.65
2018-08-18T15:29:36.565Z,5.10
2018-08-18T15:32:06.277Z,5.30
2018-08-18T15:34:35.023Z,4.92
2018-08-18T15:37:03.941Z,4.80
2018-08-18T15:39:33.604Z,4.30
2018-08-18T15:42:02.428Z,5.33
2018-08-18T15:44:31.323Z,7.08
2018-08-18T15:47:00.261Z,5.28
2018-08-18T15:49:29.731Z,4.45
2018-08-18T15:51:58.732Z,6.08
2018-08-18T15:54:27.408Z,4.90
2018-08-18T15:56:57.005Z,5.17
2018-08-18T15:59:25.890Z,5.00
2018-08-18T16:01:54.601Z,4.35
2018-08-18T16:04:23.429Z,5.10
2018-08-18T16:06:52.134Z,4.90
2018-08-18T16:09:20.847Z,4.78
2018-08-18T16:11:49.635Z,4.60
2018-08-18T16:14:18.564Z,4.80
2018-08-18T16:16:57.489Z,4.33
2018-08-18T16:19:26.376Z,4.25
2018-08-18T16:21:55.121Z,4.60
2018-08-18T16:24:31.070Z,4.53
2018-08-18T16:27:00.845Z,4.80
2018-08-18T16:29:30.629Z,5.05
2018-08-18T16:32:16.753Z,4.72
2018-08-18T16:34:46.764Z,4.47
2018-08-18T16:37:15.894Z,4.45
2018-08-18T16:39:45.031Z,4.40
2018-08-18T16:42:14.724Z,4.67
2018-08-18T16:44:43.493Z,4.10
2018-08-18T16:47:12.290Z,4.50
2018-08-18T16:49:40.867Z,4.35
2018-08-18T16:52:09.572Z,4.40
2018-08-18T16:54:38.338Z,4.80
2018-08-18T16:57:06.977Z,4.60
2018-08-18T16:59:37.516Z,4.87
2018-08-18T17:02:09.388Z,4.75
2018-08-18T17:04:38.156Z,5.72
2018-08-18T17:07:13.614Z,4.80
2018-08-18T17:09:43.383Z,9.60
2018-08-18T17:12:23.200Z,11.65
2018-08-18T17:14:51.862Z,6.37
2018-08-18T17:17:22.778Z,5.78
2018-08-18T17:19:51.557Z,7.28
2018-08-18T17:22:20.169Z,10.85
2018-08-18T17:24:49.074Z,15.88
2018-08-18T17:27:17.722Z,26.45
2018-08-18T17:29:48.926Z,35.10
2018-08-18T17:32:17.699Z,32.37
2018-08-18T17:34:46.305Z,35.68
2018-08-18T17:37:16.113Z,37.43
2018-08-18T17:39:44.749Z,18.47
2018-08-18T17:42:13.586Z,13.57
2018-08-18T17:44:42.289Z,12.77
2018-08-18T17:47:11.772Z,9.23
2018-08-18T17:49:46.969Z,9.37
2018-08-18T17:52:15.684Z,9.10
2018-08-18T17:54:53.876Z,10.00
2018-08-18T17:57:22.535Z,10.90
2018-08-18T17:59:51.521Z,11.70
2018-08-18T18:02:20.255Z,13.80
2018-08-18T18:04:53.364Z,12.50
2018-08-18T18:07:22.627Z,11.33
2018-08-18T18:09:51.574Z,11.83
2018-08-18T18:12:25.530Z,10.47
2018-08-18T18:14:55.696Z,10.33
2018-08-18T18:17:25.007Z,9.77
2018-08-18T18:19:56.348Z,9.40
2018-08-18T18:22:26.011Z,9.33
2018-08-18T18:24:55.346Z,9.43
2018-08-18T18:27:24.681Z,8.00
2018-08-18T18:29:54.370Z,8.40
2018-08-18T18:32:24.499Z,8.30
2018-08-18T18:34:53.452Z,7.77
2018-08-18T18:37:22.584Z,8.00
2018-08-18T18:40:01.523Z,8.90
2018-08-18T18:42:30.330Z,8.23
2018-08-18T18:44:59.641Z,8.40
2018-08-18T18:47:29.124Z,8.23
2018-08-18T18:49:57.824Z,8.83
2018-08-18T18:52:26.534Z,8.77
2018-08-18T18:54:57.965Z,7.73
2018-08-18T18:57:28.029Z,7.90
2018-08-18T19:00:00.591Z,7.73
2018-08-18T19:02:37.591Z,8.27
2018-08-18T19:05:16.937Z,8.20
2018-08-18T19:07:47.510Z,7.97
2018-08-18T19:10:17.318Z,7.83
2018-08-18T19:12:48.041Z,8.63
2018-08-18T19:15:16.678Z,7.93
2018-08-18T19:17:45.300Z,7.87
2018-08-18T19:20:20.879Z,7.20
2018-08-18T19:22:50.798Z,7.33
2018-08-18T19:25:19.437Z,7.70
2018-08-18T19:27:48.121Z,7.60
2018-08-18T19:30:16.800Z,7.77
2018-08-18T19:32:45.779Z,7.97
2018-08-18T19:35:14.401Z,8.47
2018-08-18T19:37:48.559Z,8.83
2018-08-18T19:40:17.269Z,8.10
2018-08-18T19:42:45.913Z,10.07
2018-08-18T19:45:14.669Z,11.87
2018-08-18T19:47:44.051Z,13.77
2018-08-18T19:50:12.885Z,13.50
2018-08-18T19:52:41.989Z,13.20
2018-08-18T19:55:12.473Z,13.40
2018-08-18T19:57:41.735Z,12.80
2018-08-18T20:00:18.029Z,13.00
2018-08-18T20:03:17.073Z,14.07
2018-08-18T20:05:45.967Z,23.00
2018-08-18T20:08:21.337Z,16.17
2018-08-18T20:10:58.805Z,15.80
2018-08-18T20:13:28.991Z,15.57
2018-08-18T20:15:59.225Z,16.87
2018-08-18T20:18:28.008Z,18.33
2018-08-18T20:20:58.733Z,21.60
2018-08-18T20:23:27.493Z,27.03
2018-08-18T20:25:56.200Z,21.90
2018-08-18T20:28:25.530Z,18.53
2018-08-18T20:30:54.216Z,17.47
2018-08-18T20:33:22.797Z,24.53
2018-08-18T20:35:51.585Z,21.80
2018-08-18T20:38:20.268Z,21.23
2018-08-18T20:40:49.401Z,23.93
2018-08-18T20:43:18.064Z,23.33
2018-08-18T20:45:48.961Z,22.47
2018-08-18T20:48:19.599Z,21.77
2018-08-18T20:50:48.854Z,16.93
2018-08-18T20:53:18.104Z,18.87
2018-08-18T20:55:53.596Z,19.67
2018-08-18T20:58:22.498Z,19.23
2018-08-18T21:00:51.281Z,20.03
2018-08-18T21:03:20.037Z,22.83
2018-08-18T21:05:48.706Z,20.97
2018-08-18T21:08:20.324Z,20.17
2018-08-18T21:10:49.585Z,16.70
2018-08-18T21:13:18.287Z,18.57
2018-08-18T21:15:46.998Z,18.07
2018-08-18T21:18:19.809Z,17.47
2018-08-18T21:20:49.305Z,17.63
2018-08-18T21:23:18.833Z,17.43
2018-08-18T21:25:49.600Z,19.40
2018-08-18T21:28:19.309Z,17.93
2018-08-18T21:30:48.474Z,19.03
2018-08-18T21:33:17.134Z,19.13
2018-08-18T21:35:47.012Z,19.83
2018-08-18T21:38:15.625Z,20.20
2018-08-18T21:40:44.468Z,20.47
2018-08-18T21:43:24.289Z,20.70
2018-08-18T21:45:53.906Z,20.00
2018-08-18T21:48:32.414Z,20.73
2018-08-18T21:51:01.273Z,20.47
2018-08-18T21:53:30.024Z,20.00
2018-08-18T21:56:00.130Z,19.30
2018-08-18T21:58:28.865Z,20.30
2018-08-18T22:01:29.472Z,20.05
2018-08-18T22:03:58.310Z,20.17
2018-08-18T22:06:27.021Z,18.50
2018-08-18T22:09:09.762Z,18.50
2018-08-18T22:11:38.417Z,19.27
2018-08-18T22:14:07.721Z,18.37
2018-08-18T22:16:37.786Z,17.80
2018-08-18T22:19:06.500Z,17.80
2018-08-18T22:21:35.205Z,17.53
2018-08-18T22:24:03.933Z,18.00
2018-08-18T22:26:32.540Z,16.97
2018-08-18T22:29:05.145Z,18.47
2018-08-18T22:31:34.421Z,20.53
2018-08-18T22:34:04.298Z,19.80
2018-08-18T22:36:35.242Z,20.13
2018-08-18T22:39:05.182Z,19.03
2018-08-18T22:41:34.298Z,19.63
2018-08-18T22:44:02.981Z,20.27
2018-08-18T22:46:31.899Z,20.80
2018-08-18T22:49:01.613Z,20.70
2018-08-18T22:51:30.301Z,21.30
2018-08-18T22:53:58.957Z,19.70
2018-08-18T22:56:32.813Z,19.00
2018-08-18T22:59:02.475Z,18.70
2018-08-18T23:01:31.879Z,20.47
2018-08-18T23:04:00.914Z,18.47
2018-08-18T23:06:32.844Z,18.77
2018-08-18T23:09:01.520Z,21.80
2018-08-18T23:11:30.149Z,21.02
2018-08-18T23:13:58.709Z,20.53
2018-08-18T23:16:27.965Z,20.83
2018-08-18T23:18:56.756Z,20.90
2018-08-18T23:21:31.341Z,25.20
2018-08-18T23:24:02.769Z,27.20
2018-08-18T23:26:32.430Z,27.23
2018-08-18T23:29:01.387Z,27.97
2018-08-18T23:31:30.067Z,27.70
2018-08-18T23:33:58.680Z,28.57
2018-08-18T23:36:27.258Z,29.07
2018-08-18T23:38:58.886Z,27.97
2018-08-18T23:41:27.657Z,29.10
2018-08-18T23:43:56.269Z,28.33
2018-08-18T23:46:24.966Z,30.17
2018-08-18T23:48:53.665Z,27.50
2018-08-18T23:51:27.288Z,24.57
2018-08-18T23:53:55.858Z,23.60
2018-08-18T23:56:28.680Z,22.07
2018-08-18T23:58:58.821Z,22.90
